sensor_id;sensor_type;location;lat;lon;timestamp;P1;durP1;ratioP1;P2;durP2;ratioP2
19339;SDS011;9804;52.350;6.684;2022-10-15T00:00:17;86.28;;;33.78;;
19339;SDS011;9804;52.350;6.684;2022-10-15T00:02:43;71.25;;;32.60;;
19339;SDS011;9804;52.350;6.684;2022-10-15T00:05:08;71.05;;;31.60;;
19339;SDS011;9804;52.350;6.684;2022-10-15T00:07:34;70.88;;;33.33;;
19339;SDS011;9804;52.350;6.684;2022-10-15T00:09:59;99.72;;;37.60;;
19339;SDS011;9804;52.350;6.684;2022-10-15T00:12:24;82.70;;;36.03;;
19339;SDS011;9804;52.350;6.684;2022-10-15T00:14:50;96.35;;;37.42;;
19339;SDS011;9804;52.350;6.684;2022-10-15T00:17:15;91.38;;;35.97;;
19339;SDS011;9804;52.350;6.684;2022-10-15T00:19:40;99.88;;;37.58;;
19339;SDS011;9804;52.350;6.684;2022-10-15T00:22:06;90.25;;;37.50;;
19339;SDS011;9804;52.350;6.684;2022-10-15T00:24:31;94.80;;;37.95;;
19339;SDS011;9804;52.350;6.684;2022-10-15T00:26:56;88.85;;;35.97;;
19339;SDS011;9804;52.350;6.684;2022-10-15T00:29:22;86.03;;;34.72;;
19339;SDS011;9804;52.350;6.684;2022-10-15T00:31:47;88.15;;;34.08;;
19339;SDS011;9804;52.350;6.684;2022-10-15T00:34:12;92.47;;;37.05;;
19339;SDS011;9804;52.350;6.684;2022-10-15T00:36:38;84.97;;;35.95;;
19339;SDS011;9804;52.350;6.684;2022-10-15T00:39:03;68.15;;;31.65;;
19339;SDS011;9804;52.350;6.684;2022-10-15T00:41:31;84.97;;;35.28;;
19339;SDS011;9804;52.350;6.684;2022-10-15T00:43:59;103.18;;;38.03;;
19339;SDS011;9804;52.350;6.684;2022-10-15T00:46:33;98.05;;;38.40;;
19339;SDS011;9804;52.350;6.684;2022-10-15T00:49:14;94.97;;;39.95;;
19339;SDS011;9804;52.350;6.684;2022-10-15T00:51:46;104.00;;;39.85;;
19339;SDS011;9804;52.350;6.684;2022-10-15T00:54:14;100.70;;;39.78;;
19339;SDS011;9804;52.350;6.684;2022-10-15T00:56:41;104.50;;;40.05;;
19339;SDS011;9804;52.350;6.684;2022-10-15T00:59:09;112.15;;;40.17;;
19339;SDS011;9804;52.350;6.684;2022-10-15T01:01:36;102.13;;;40.00;;
19339;SDS011;9804;52.350;6.684;2022-10-15T01:04:02;120.65;;;39.80;;
19339;SDS011;9804;52.350;6.684;2022-10-15T01:06:29;84.05;;;35.75;;
19339;SDS011;9804;52.350;6.684;2022-10-15T01:08:55;97.80;;;38.97;;
19339;SDS011;9804;52.350;6.684;2022-10-15T01:11:29;98.82;;;40.03;;
19339;SDS011;9804;52.350;6.684;2022-10-15T01:14:08;119.13;;;41.53;;
19339;SDS011;9804;52.350;6.684;2022-10-15T01:20:09;125.32;;;41.85;;
19339;SDS011;9804;52.350;6.684;2022-10-15T01:28:46;98.35;;;39.97;;
19339;SDS011;9804;52.350;6.684;2022-10-15T01:31:31;100.07;;;39.65;;
19339;SDS011;9804;52.350;6.684;2022-10-15T01:34:03;105.30;;;42.28;;
19339;SDS011;9804;52.350;6.684;2022-10-15T01:36:37;149.18;;;46.03;;
19339;SDS011;9804;52.350;6.684;2022-10-15T01:39:17;144.73;;;46.35;;
19339;SDS011;9804;52.350;6.684;2022-10-15T01:43:10;148.63;;;45.30;;
19339;SDS011;9804;52.350;6.684;2022-10-15T01:45:13;165.18;;;46.05;;
19339;SDS011;9804;52.350;6.684;2022-10-15T01:50:14;167.57;;;42.10;;
19339;SDS011;9804;52.350;6.684;2022-10-15T01:52:42;156.40;;;40.80;;
19339;SDS011;9804;52.350;6.684;2022-10-15T01:55:09;428.95;;;54.45;;
19339;SDS011;9804;52.350;6.684;2022-10-15T01:57:37;163.35;;;40.60;;
19339;SDS011;9804;52.350;6.684;2022-10-15T02:00:05;241.40;;;45.28;;
19339;SDS011;9804;52.350;6.684;2022-10-15T02:02:31;405.17;;;51.28;;
19339;SDS011;9804;52.350;6.684;2022-10-15T02:04:56;182.15;;;37.20;;
19339;SDS011;9804;52.350;6.684;2022-10-15T02:07:33;218.10;;;40.72;;
19339;SDS011;9804;52.350;6.684;2022-10-15T02:18:46;90.35;;;33.35;;
19339;SDS011;9804;52.350;6.684;2022-10-15T02:21:22;111.43;;;36.47;;
19339;SDS011;9804;52.350;6.684;2022-10-15T02:24:10;138.13;;;38.95;;
19339;SDS011;9804;52.350;6.684;2022-10-15T02:26:42;118.80;;;38.28;;
19339;SDS011;9804;52.350;6.684;2022-10-15T02:29:09;111.18;;;35.00;;
19339;SDS011;9804;52.350;6.684;2022-10-15T02:31:37;98.45;;;36.58;;
19339;SDS011;9804;52.350;6.684;2022-10-15T02:34:06;82.10;;;33.17;;
19339;SDS011;9804;52.350;6.684;2022-10-15T02:36:33;59.17;;;29.05;;
19339;SDS011;9804;52.350;6.684;2022-10-15T02:39:00;74.10;;;33.03;;
19339;SDS011;9804;52.350;6.684;2022-10-15T02:41:27;84.18;;;34.20;;
19339;SDS011;9804;52.350;6.684;2022-10-15T02:43:53;77.68;;;33.80;;
19339;SDS011;9804;52.350;6.684;2022-10-15T02:46:19;80.38;;;34.55;;
19339;SDS011;9804;52.350;6.684;2022-10-15T02:48:44;73.32;;;31.27;;
19339;SDS011;9804;52.350;6.684;2022-10-15T02:51:10;79.13;;;33.63;;
19339;SDS011;9804;52.350;6.684;2022-10-15T02:53:35;69.10;;;30.92;;
19339;SDS011;9804;52.350;6.684;2022-10-15T02:56:00;68.85;;;31.17;;
19339;SDS011;9804;52.350;6.684;2022-10-15T02:58:26;65.72;;;31.08;;
19339;SDS011;9804;52.350;6.684;2022-10-15T03:00:53;66.20;;;31.70;;
19339;SDS011;9804;52.350;6.684;2022-10-15T03:03:18;63.83;;;32.25;;
19339;SDS011;9804;52.350;6.684;2022-10-15T03:05:44;78.78;;;34.85;;
19339;SDS011;9804;52.350;6.684;2022-10-15T03:08:09;87.57;;;35.60;;
19339;SDS011;9804;52.350;6.684;2022-10-15T03:10:35;78.10;;;33.38;;
19339;SDS011;9804;52.350;6.684;2022-10-15T03:13:01;74.13;;;33.35;;
19339;SDS011;9804;52.350;6.684;2022-10-15T03:15:27;80.40;;;35.67;;
19339;SDS011;9804;52.350;6.684;2022-10-15T03:17:53;79.72;;;34.05;;
19339;SDS011;9804;52.350;6.684;2022-10-15T03:20:18;74.95;;;34.22;;
19339;SDS011;9804;52.350;6.684;2022-10-15T03:22:43;66.55;;;32.25;;
19339;SDS011;9804;52.350;6.684;2022-10-15T03:25:09;75.90;;;35.10;;
19339;SDS011;9804;52.350;6.684;2022-10-15T03:27:34;70.55;;;32.47;;
19339;SDS011;9804;52.350;6.684;2022-10-15T03:29:59;75.55;;;35.35;;
19339;SDS011;9804;52.350;6.684;2022-10-15T03:32:24;68.93;;;33.17;;
19339;SDS011;9804;52.350;6.684;2022-10-15T03:34:50;79.68;;;38.38;;
19339;SDS011;9804;52.350;6.684;2022-10-15T03:37:15;74.10;;;35.33;;
19339;SDS011;9804;52.350;6.684;2022-10-15T03:39:41;80.03;;;36.15;;
19339;SDS011;9804;52.350;6.684;2022-10-15T03:42:06;60.90;;;30.02;;
19339;SDS011;9804;52.350;6.684;2022-10-15T03:44:31;76.68;;;36.63;;
19339;SDS011;9804;52.350;6.684;2022-10-15T03:46:58;82.05;;;37.20;;
19339;SDS011;9804;52.350;6.684;2022-10-15T03:49:23;79.15;;;36.40;;
19339;SDS011;9804;52.350;6.684;2022-10-15T03:51:48;78.68;;;35.60;;
19339;SDS011;9804;52.350;6.684;2022-10-15T03:54:14;70.10;;;34.22;;
19339;SDS011;9804;52.350;6.684;2022-10-15T03:56:39;66.95;;;33.85;;
19339;SDS011;9804;52.350;6.684;2022-10-15T03:59:04;70.10;;;33.80;;
19339;SDS011;9804;52.350;6.684;2022-10-15T04:01:30;73.72;;;34.03;;
19339;SDS011;9804;52.350;6.684;2022-10-15T04:03:55;74.72;;;33.85;;
19339;SDS011;9804;52.350;6.684;2022-10-15T04:06:20;68.47;;;33.28;;
19339;SDS011;9804;52.350;6.684;2022-10-15T04:08:46;56.30;;;29.83;;
19339;SDS011;9804;52.350;6.684;2022-10-15T04:11:11;69.28;;;32.70;;
19339;SDS011;9804;52.350;6.684;2022-10-15T04:13:36;64.05;;;31.50;;
19339;SDS011;9804;52.350;6.684;2022-10-15T04:16:05;62.72;;;31.83;;
19339;SDS011;9804;52.350;6.684;2022-10-15T04:18:31;55.38;;;28.85;;
19339;SDS011;9804;52.350;6.684;2022-10-15T04:20:59;65.68;;;30.95;;
19339;SDS011;9804;52.350;6.684;2022-10-15T04:23:25;71.22;;;31.50;;
19339;SDS011;9804;52.350;6.684;2022-10-15T04:25:51;72.75;;;32.53;;
19339;SDS011;9804;52.350;6.684;2022-10-15T04:28:17;64.88;;;30.83;;
19339;SDS011;9804;52.350;6.684;2022-10-15T04:30:42;73.55;;;31.20;;
19339;SDS011;9804;52.350;6.684;2022-10-15T04:33:08;78.93;;;30.70;;
19339;SDS011;9804;52.350;6.684;2022-10-15T04:35:34;58.58;;;28.45;;
19339;SDS011;9804;52.350;6.684;2022-10-15T04:37:59;62.97;;;29.08;;
19339;SDS011;9804;52.350;6.684;2022-10-15T04:40:25;60.25;;;29.63;;
19339;SDS011;9804;52.350;6.684;2022-10-15T04:42:51;48.83;;;26.00;;
19339;SDS011;9804;52.350;6.684;2022-10-15T04:45:16;57.67;;;28.10;;
19339;SDS011;9804;52.350;6.684;2022-10-15T04:47:42;66.63;;;30.08;;
19339;SDS011;9804;52.350;6.684;2022-10-15T04:50:08;55.88;;;28.38;;
19339;SDS011;9804;52.350;6.684;2022-10-15T04:52:34;59.95;;;29.42;;
19339;SDS011;9804;52.350;6.684;2022-10-15T04:55:00;68.22;;;32.67;;
19339;SDS011;9804;52.350;6.684;2022-10-15T04:57:27;65.53;;;29.65;;
19339;SDS011;9804;52.350;6.684;2022-10-15T04:59:52;67.55;;;31.13;;
19339;SDS011;9804;52.350;6.684;2022-10-15T05:02:18;84.32;;;32.03;;
19339;SDS011;9804;52.350;6.684;2022-10-15T05:04:43;73.70;;;32.00;;
19339;SDS011;9804;52.350;6.684;2022-10-15T05:07:09;70.05;;;31.88;;
19339;SDS011;9804;52.350;6.684;2022-10-15T05:09:34;67.72;;;31.58;;
19339;SDS011;9804;52.350;6.684;2022-10-15T05:12:00;64.78;;;31.00;;
19339;SDS011;9804;52.350;6.684;2022-10-15T05:14:25;65.50;;;30.75;;
19339;SDS011;9804;52.350;6.684;2022-10-15T05:16:51;76.22;;;35.25;;
19339;SDS011;9804;52.350;6.684;2022-10-15T05:19:16;62.42;;;30.65;;
19339;SDS011;9804;52.350;6.684;2022-10-15T05:21:41;78.97;;;35.70;;
19339;SDS011;9804;52.350;6.684;2022-10-15T05:24:08;78.38;;;36.72;;
19339;SDS011;9804;52.350;6.684;2022-10-15T05:26:34;76.78;;;36.75;;
19339;SDS011;9804;52.350;6.684;2022-10-15T05:28:59;84.72;;;39.95;;
19339;SDS011;9804;52.350;6.684;2022-10-15T05:31:27;91.75;;;40.28;;
19339;SDS011;9804;52.350;6.684;2022-10-15T05:33:54;85.05;;;39.83;;
19339;SDS011;9804;52.350;6.684;2022-10-15T05:36:20;84.82;;;40.00;;
19339;SDS011;9804;52.350;6.684;2022-10-15T05:38:48;72.78;;;35.00;;
19339;SDS011;9804;52.350;6.684;2022-10-15T05:41:15;79.68;;;38.85;;
19339;SDS011;9804;52.350;6.684;2022-10-15T05:43:41;80.07;;;37.08;;
19339;SDS011;9804;52.350;6.684;2022-10-15T05:46:07;88.07;;;37.63;;
19339;SDS011;9804;52.350;6.684;2022-10-15T05:48:32;84.50;;;39.10;;
19339;SDS011;9804;52.350;6.684;2022-10-15T05:51:05;83.50;;;38.40;;
19339;SDS011;9804;52.350;6.684;2022-10-15T05:53:34;81.53;;;38.95;;
19339;SDS011;9804;52.350;6.684;2022-10-15T05:56:00;77.72;;;36.67;;
19339;SDS011;9804;52.350;6.684;2022-10-15T05:58:26;79.72;;;39.50;;
19339;SDS011;9804;52.350;6.684;2022-10-15T06:00:53;84.82;;;40.63;;
19339;SDS011;9804;52.350;6.684;2022-10-15T06:03:19;83.75;;;39.00;;
19339;SDS011;9804;52.350;6.684;2022-10-15T06:05:44;80.22;;;39.20;;
19339;SDS011;9804;52.350;6.684;2022-10-15T06:08:09;86.68;;;38.92;;
19339;SDS011;9804;52.350;6.684;2022-10-15T06:10:35;86.75;;;39.85;;
19339;SDS011;9804;52.350;6.684;2022-10-15T06:13:01;84.32;;;39.85;;
19339;SDS011;9804;52.350;6.684;2022-10-15T06:15:27;86.38;;;40.08;;
19339;SDS011;9804;52.350;6.684;2022-10-15T06:17:52;83.07;;;38.72;;
19339;SDS011;9804;52.350;6.684;2022-10-15T06:20:18;76.38;;;38.17;;
19339;SDS011;9804;52.350;6.684;2022-10-15T06:22:43;83.72;;;40.35;;
19339;SDS011;9804;52.350;6.684;2022-10-15T06:25:09;80.32;;;39.38;;
19339;SDS011;9804;52.350;6.684;2022-10-15T06:27:34;75.03;;;36.17;;
19339;SDS011;9804;52.350;6.684;2022-10-15T06:29:59;71.80;;;36.80;;
19339;SDS011;9804;52.350;6.684;2022-10-15T06:32:25;59.90;;;32.72;;
19339;SDS011;9804;52.350;6.684;2022-10-15T06:34:50;79.07;;;38.03;;
19339;SDS011;9804;52.350;6.684;2022-10-15T06:37:16;78.78;;;39.92;;
19339;SDS011;9804;52.350;6.684;2022-10-15T06:39:41;73.20;;;37.55;;
19339;SDS011;9804;52.350;6.684;2022-10-15T06:42:06;78.05;;;39.28;;
19339;SDS011;9804;52.350;6.684;2022-10-15T06:44:32;70.20;;;38.03;;
19339;SDS011;9804;52.350;6.684;2022-10-15T06:46:57;81.55;;;39.03;;
19339;SDS011;9804;52.350;6.684;2022-10-15T06:49:22;63.92;;;35.05;;
19339;SDS011;9804;52.350;6.684;2022-10-15T06:51:48;79.88;;;40.03;;
19339;SDS011;9804;52.350;6.684;2022-10-15T06:54:13;71.32;;;37.33;;
19339;SDS011;9804;52.350;6.684;2022-10-15T06:56:39;79.57;;;38.38;;
19339;SDS011;9804;52.350;6.684;2022-10-15T06:59:04;66.78;;;37.40;;
19339;SDS011;9804;52.350;6.684;2022-10-15T07:01:29;68.90;;;36.55;;
19339;SDS011;9804;52.350;6.684;2022-10-15T07:03:55;64.80;;;35.35;;
19339;SDS011;9804;52.350;6.684;2022-10-15T07:06:20;72.20;;;38.47;;
19339;SDS011;9804;52.350;6.684;2022-10-15T07:08:45;83.72;;;40.47;;
19339;SDS011;9804;52.350;6.684;2022-10-15T07:11:11;82.63;;;41.53;;
19339;SDS011;9804;52.350;6.684;2022-10-15T07:13:36;82.03;;;41.28;;
19339;SDS011;9804;52.350;6.684;2022-10-15T07:16:03;75.85;;;40.92;;
19339;SDS011;9804;52.350;6.684;2022-10-15T07:18:29;83.25;;;41.47;;
19339;SDS011;9804;52.350;6.684;2022-10-15T07:20:55;94.05;;;42.10;;
19339;SDS011;9804;52.350;6.684;2022-10-15T07:23:21;95.68;;;44.90;;
19339;SDS011;9804;52.350;6.684;2022-10-15T07:25:46;89.13;;;42.47;;
19339;SDS011;9804;52.350;6.684;2022-10-15T07:28:11;93.47;;;43.20;;
19339;SDS011;9804;52.350;6.684;2022-10-15T07:30:37;95.93;;;43.55;;
19339;SDS011;9804;52.350;6.684;2022-10-15T07:33:02;93.82;;;43.20;;
19339;SDS011;9804;52.350;6.684;2022-10-15T07:35:28;90.40;;;43.13;;
19339;SDS011;9804;52.350;6.684;2022-10-15T07:37:53;101.93;;;45.03;;
19339;SDS011;9804;52.350;6.684;2022-10-15T07:40:19;86.45;;;43.67;;
19339;SDS011;9804;52.350;6.684;2022-10-15T07:42:51;109.65;;;46.65;;
19339;SDS011;9804;52.350;6.684;2022-10-15T07:45:17;115.45;;;47.05;;
19339;SDS011;9804;52.350;6.684;2022-10-15T07:47:42;97.35;;;45.50;;
19339;SDS011;9804;52.350;6.684;2022-10-15T07:50:08;110.32;;;48.60;;
19339;SDS011;9804;52.350;6.684;2022-10-15T07:52:33;90.00;;;44.75;;
19339;SDS011;9804;52.350;6.684;2022-10-15T07:54:58;94.18;;;45.78;;
19339;SDS011;9804;52.350;6.684;2022-10-15T07:57:24;104.13;;;46.40;;
19339;SDS011;9804;52.350;6.684;2022-10-15T07:59:49;96.88;;;44.38;;
19339;SDS011;9804;52.350;6.684;2022-10-15T08:02:15;103.30;;;45.53;;
19339;SDS011;9804;52.350;6.684;2022-10-15T08:04:41;80.22;;;39.75;;
19339;SDS011;9804;52.350;6.684;2022-10-15T08:07:06;90.43;;;43.90;;
19339;SDS011;9804;52.350;6.684;2022-10-15T08:09:32;103.15;;;46.33;;
19339;SDS011;9804;52.350;6.684;2022-10-15T08:11:57;93.30;;;45.75;;
19339;SDS011;9804;52.350;6.684;2022-10-15T08:14:22;85.95;;;44.90;;
19339;SDS011;9804;52.350;6.684;2022-10-15T08:16:48;82.82;;;41.88;;
19339;SDS011;9804;52.350;6.684;2022-10-15T08:19:13;90.05;;;44.42;;
19339;SDS011;9804;52.350;6.684;2022-10-15T08:21:41;100.93;;;46.10;;
19339;SDS011;9804;52.350;6.684;2022-10-15T08:24:07;91.43;;;46.67;;
19339;SDS011;9804;52.350;6.684;2022-10-15T08:26:33;103.13;;;47.55;;
19339;SDS011;9804;52.350;6.684;2022-10-15T08:28:59;101.35;;;47.80;;
19339;SDS011;9804;52.350;6.684;2022-10-15T08:31:24;106.68;;;47.80;;
19339;SDS011;9804;52.350;6.684;2022-10-15T08:33:50;94.65;;;45.50;;
19339;SDS011;9804;52.350;6.684;2022-10-15T08:36:15;87.30;;;43.95;;
19339;SDS011;9804;52.350;6.684;2022-10-15T08:38:41;72.60;;;40.15;;
19339;SDS011;9804;52.350;6.684;2022-10-15T08:41:13;77.80;;;39.45;;
19339;SDS011;9804;52.350;6.684;2022-10-15T08:44:01;71.28;;;37.45;;
19339;SDS011;9804;52.350;6.684;2022-10-15T08:46:32;68.30;;;36.65;;
19339;SDS011;9804;52.350;6.684;2022-10-15T08:49:01;73.47;;;37.47;;
19339;SDS011;9804;52.350;6.684;2022-10-15T08:51:30;66.05;;;35.38;;
19339;SDS011;9804;52.350;6.684;2022-10-15T08:54:03;54.63;;;31.67;;
19339;SDS011;9804;52.350;6.684;2022-10-15T08:56:36;59.13;;;32.67;;
19339;SDS011;9804;52.350;6.684;2022-10-15T08:59:19;54.08;;;31.65;;
19339;SDS011;9804;52.350;6.684;2022-10-15T09:02:16;56.78;;;31.38;;
19339;SDS011;9804;52.350;6.684;2022-10-15T09:04:51;52.28;;;30.05;;
19339;SDS011;9804;52.350;6.684;2022-10-15T09:07:25;49.88;;;29.75;;
19339;SDS011;9804;52.350;6.684;2022-10-15T09:12:49;50.15;;;29.73;;
19339;SDS011;9804;52.350;6.684;2022-10-15T09:15:25;54.10;;;29.20;;
19339;SDS011;9804;52.350;6.684;2022-10-15T09:17:54;53.85;;;29.85;;
19339;SDS011;9804;52.350;6.684;2022-10-15T09:20:22;52.08;;;29.77;;
19339;SDS011;9804;52.350;6.684;2022-10-15T09:22:50;48.38;;;28.40;;
19339;SDS011;9804;52.350;6.684;2022-10-15T09:25:20;47.40;;;28.73;;
19339;SDS011;9804;52.350;6.684;2022-10-15T09:27:47;51.53;;;29.67;;
19339;SDS011;9804;52.350;6.684;2022-10-15T09:30:27;49.03;;;29.30;;
19339;SDS011;9804;52.350;6.684;2022-10-15T09:33:17;48.60;;;28.55;;
19339;SDS011;9804;52.350;6.684;2022-10-15T09:35:55;45.67;;;27.50;;
19339;SDS011;9804;52.350;6.684;2022-10-15T09:41:13;44.15;;;28.48;;
19339;SDS011;9804;52.350;6.684;2022-10-15T09:43:45;49.38;;;29.25;;
19339;SDS011;9804;52.350;6.684;2022-10-15T09:46:13;45.15;;;27.25;;
19339;SDS011;9804;52.350;6.684;2022-10-15T09:48:40;46.00;;;26.85;;
19339;SDS011;9804;52.350;6.684;2022-10-15T09:51:26;45.63;;;27.85;;
19339;SDS011;9804;52.350;6.684;2022-10-15T09:54:07;42.45;;;27.13;;
19339;SDS011;9804;52.350;6.684;2022-10-15T09:56:50;44.28;;;27.17;;
19339;SDS011;9804;52.350;6.684;2022-10-15T09:59:19;41.25;;;25.17;;
19339;SDS011;9804;52.350;6.684;2022-10-15T10:02:02;42.67;;;25.88;;
19339;SDS011;9804;52.350;6.684;2022-10-15T10:04:40;42.40;;;26.00;;
19339;SDS011;9804;52.350;6.684;2022-10-15T10:07:05;36.35;;;24.05;;
19339;SDS011;9804;52.350;6.684;2022-10-15T10:09:36;33.60;;;21.40;;
19339;SDS011;9804;52.350;6.684;2022-10-15T10:12:17;35.33;;;23.05;;
19339;SDS011;9804;52.350;6.684;2022-10-15T10:15:06;34.67;;;22.15;;
19339;SDS011;9804;52.350;6.684;2022-10-15T10:17:53;37.85;;;23.30;;
19339;SDS011;9804;52.350;6.684;2022-10-15T10:20:24;32.95;;;21.40;;
19339;SDS011;9804;52.350;6.684;2022-10-15T10:22:55;33.33;;;22.17;;
19339;SDS011;9804;52.350;6.684;2022-10-15T10:27:50;34.70;;;21.73;;
19339;SDS011;9804;52.350;6.684;2022-10-15T10:30:20;33.10;;;21.58;;
19339;SDS011;9804;52.350;6.684;2022-10-15T10:32:46;32.13;;;21.48;;
19339;SDS011;9804;52.350;6.684;2022-10-15T10:35:21;30.50;;;20.83;;
19339;SDS011;9804;52.350;6.684;2022-10-15T10:37:48;30.52;;;21.75;;
19339;SDS011;9804;52.350;6.684;2022-10-15T10:40:22;28.25;;;20.17;;
19339;SDS011;9804;52.350;6.684;2022-10-15T10:43:09;27.50;;;19.92;;
19339;SDS011;9804;52.350;6.684;2022-10-15T10:45:52;28.17;;;20.30;;
19339;SDS011;9804;52.350;6.684;2022-10-15T10:48:24;28.00;;;18.77;;
19339;SDS011;9804;52.350;6.684;2022-10-15T10:53:38;27.70;;;19.35;;
19339;SDS011;9804;52.350;6.684;2022-10-15T10:56:11;24.77;;;17.42;;
19339;SDS011;9804;52.350;6.684;2022-10-15T10:58:38;25.80;;;17.90;;
19339;SDS011;9804;52.350;6.684;2022-10-15T11:01:04;23.83;;;16.92;;
19339;SDS011;9804;52.350;6.684;2022-10-15T11:03:36;24.50;;;17.00;;
19339;SDS011;9804;52.350;6.684;2022-10-15T11:08:55;28.63;;;18.00;;
19339;SDS011;9804;52.350;6.684;2022-10-15T11:11:58;25.69;;;16.34;;
19339;SDS011;9804;52.350;6.684;2022-10-15T11:17:24;29.90;;;19.92;;
19339;SDS011;9804;52.350;6.684;2022-10-15T11:20:06;30.80;;;19.35;;
19339;SDS011;9804;52.350;6.684;2022-10-15T11:22:42;31.42;;;19.33;;
19339;SDS011;9804;52.350;6.684;2022-10-15T11:27:53;32.35;;;20.85;;
19339;SDS011;9804;52.350;6.684;2022-10-15T11:41:36;24.85;;;16.70;;
19339;SDS011;9804;52.350;6.684;2022-10-15T11:49:40;24.17;;;16.40;;
19339;SDS011;9804;52.350;6.684;2022-10-15T11:54:56;22.67;;;16.33;;
19339;SDS011;9804;52.350;6.684;2022-10-15T11:57:27;21.00;;;16.63;;
19339;SDS011;9804;52.350;6.684;2022-10-15T12:00:00;21.50;;;16.55;;
19339;SDS011;9804;52.350;6.684;2022-10-15T12:02:38;21.15;;;16.15;;
19339;SDS011;9804;52.350;6.684;2022-10-15T12:05:05;20.77;;;15.88;;
19339;SDS011;9804;52.350;6.684;2022-10-15T12:07:37;19.77;;;15.43;;
19339;SDS011;9804;52.350;6.684;2022-10-15T12:10:16;20.60;;;15.20;;
19339;SDS011;9804;52.350;6.684;2022-10-15T12:15:31;18.58;;;14.57;;
19339;SDS011;9804;52.350;6.684;2022-10-15T12:18:26;17.33;;;14.10;;
19339;SDS011;9804;52.350;6.684;2022-10-15T12:20:58;18.63;;;14.20;;
19339;SDS011;9804;52.350;6.684;2022-10-15T12:26:01;14.98;;;13.38;;
19339;SDS011;9804;52.350;6.684;2022-10-15T12:28:47;13.93;;;12.27;;
19339;SDS011;9804;52.350;6.684;2022-10-15T12:31:14;14.18;;;12.20;;
19339;SDS011;9804;52.350;6.684;2022-10-15T12:33:49;15.40;;;11.60;;
19339;SDS011;9804;52.350;6.684;2022-10-15T12:36:20;12.75;;;11.55;;
19339;SDS011;9804;52.350;6.684;2022-10-15T12:41:59;14.82;;;11.20;;
19339;SDS011;9804;52.350;6.684;2022-10-15T12:46:56;14.20;;;11.95;;
19339;SDS011;9804;52.350;6.684;2022-10-15T12:55:23;12.38;;;10.95;;
19339;SDS011;9804;52.350;6.684;2022-10-15T12:57:54;13.20;;;11.73;;
19339;SDS011;9804;52.350;6.684;2022-10-15T13:02:52;13.48;;;12.07;;
19339;SDS011;9804;52.350;6.684;2022-10-15T13:05:32;12.07;;;10.88;;
19339;SDS011;9804;52.350;6.684;2022-10-15T13:07:59;11.55;;;10.27;;
19339;SDS011;9804;52.350;6.684;2022-10-15T13:10:28;11.88;;;10.52;;
19339;SDS011;9804;52.350;6.684;2022-10-15T13:13:02;11.15;;;10.05;;
19339;SDS011;9804;52.350;6.684;2022-10-15T13:15:30;10.43;;;9.52;;
19339;SDS011;9804;52.350;6.684;2022-10-15T13:17:58;9.93;;;8.93;;
19339;SDS011;9804;52.350;6.684;2022-10-15T13:26:12;9.52;;;8.63;;
19339;SDS011;9804;52.350;6.684;2022-10-15T13:28:50;8.90;;;8.10;;
19339;SDS011;9804;52.350;6.684;2022-10-15T13:31:20;6.82;;;6.30;;
19339;SDS011;9804;52.350;6.684;2022-10-15T13:33:52;8.63;;;7.25;;
19339;SDS011;9804;52.350;6.684;2022-10-15T13:36:23;7.93;;;7.13;;
19339;SDS011;9804;52.350;6.684;2022-10-15T13:38:54;7.60;;;6.90;;
19339;SDS011;9804;52.350;6.684;2022-10-15T13:41:43;7.20;;;6.50;;
19339;SDS011;9804;52.350;6.684;2022-10-15T13:47:02;6.95;;;6.25;;
19339;SDS011;9804;52.350;6.684;2022-10-15T13:49:48;6.82;;;6.22;;
19339;SDS011;9804;52.350;6.684;2022-10-15T13:52:13;7.25;;;5.90;;
19339;SDS011;9804;52.350;6.684;2022-10-15T13:54:39;6.63;;;5.63;;
19339;SDS011;9804;52.350;6.684;2022-10-15T13:57:08;6.75;;;6.15;;
19339;SDS011;9804;52.350;6.684;2022-10-15T13:59:40;7.00;;;5.93;;
19339;SDS011;9804;52.350;6.684;2022-10-15T14:02:09;5.53;;;4.82;;
19339;SDS011;9804;52.350;6.684;2022-10-15T14:04:35;5.47;;;4.97;;
19339;SDS011;9804;52.350;6.684;2022-10-15T14:07:02;7.28;;;5.32;;
19339;SDS011;9804;52.350;6.684;2022-10-15T14:09:42;6.07;;;5.20;;
19339;SDS011;9804;52.350;6.684;2022-10-15T14:12:10;5.93;;;5.28;;
19339;SDS011;9804;52.350;6.684;2022-10-15T14:14:37;5.68;;;5.10;;
19339;SDS011;9804;52.350;6.684;2022-10-15T14:17:24;7.13;;;5.57;;
19339;SDS011;9804;52.350;6.684;2022-10-15T14:19:52;6.65;;;5.95;;
19339;SDS011;9804;52.350;6.684;2022-10-15T14:22:22;11.15;;;6.57;;
19339;SDS011;9804;52.350;6.684;2022-10-15T14:24:51;7.82;;;7.13;;
19339;SDS011;9804;52.350;6.684;2022-10-15T14:27:24;7.55;;;6.85;;
19339;SDS011;9804;52.350;6.684;2022-10-15T14:29:55;6.47;;;5.90;;
19339;SDS011;9804;52.350;6.684;2022-10-15T14:32:27;9.88;;;7.10;;
19339;SDS011;9804;52.350;6.684;2022-10-15T14:34:57;6.88;;;6.20;;
19339;SDS011;9804;52.350;6.684;2022-10-15T14:42:32;9.40;;;7.82;;
19339;SDS011;9804;52.350;6.684;2022-10-15T14:44:58;7.20;;;5.32;;
19339;SDS011;9804;52.350;6.684;2022-10-15T14:47:38;9.40;;;4.90;;
19339;SDS011;9804;52.350;6.684;2022-10-15T14:50:04;6.15;;;5.47;;
19339;SDS011;9804;52.350;6.684;2022-10-15T14:52:30;8.63;;;5.40;;
19339;SDS011;9804;52.350;6.684;2022-10-15T14:55:00;6.28;;;5.25;;
19339;SDS011;9804;52.350;6.684;2022-10-15T14:57:38;8.68;;;6.38;;
19339;SDS011;9804;52.350;6.684;2022-10-15T15:00:23;7.13;;;6.18;;
19339;SDS011;9804;52.350;6.684;2022-10-15T15:02:55;6.10;;;5.30;;
19339;SDS011;9804;52.350;6.684;2022-10-15T15:05:25;7.75;;;5.63;;
19339;SDS011;9804;52.350;6.684;2022-10-15T15:07:51;6.10;;;5.50;;
19339;SDS011;9804;52.350;6.684;2022-10-15T15:10:18;5.85;;;5.15;;
19339;SDS011;9804;52.350;6.684;2022-10-15T15:12:51;6.68;;;5.60;;
19339;SDS011;9804;52.350;6.684;2022-10-15T15:15:19;5.47;;;4.97;;
19339;SDS011;9804;52.350;6.684;2022-10-15T15:17:47;5.60;;;5.10;;
19339;SDS011;9804;52.350;6.684;2022-10-15T15:20:13;7.28;;;5.28;;
19339;SDS011;9804;52.350;6.684;2022-10-15T15:22:39;9.50;;;5.90;;
19339;SDS011;9804;52.350;6.684;2022-10-15T15:25:11;6.38;;;5.75;;
19339;SDS011;9804;52.350;6.684;2022-10-15T15:27:39;6.90;;;6.00;;
19339;SDS011;9804;52.350;6.684;2022-10-15T15:30:05;6.70;;;5.97;;
19339;SDS011;9804;52.350;6.684;2022-10-15T15:32:32;8.07;;;6.78;;
19339;SDS011;9804;52.350;6.684;2022-10-15T15:34:58;7.95;;;6.15;;
19339;SDS011;9804;52.350;6.684;2022-10-15T15:37:24;8.35;;;6.55;;
19339;SDS011;9804;52.350;6.684;2022-10-15T15:39:50;8.35;;;6.47;;
19339;SDS011;9804;52.350;6.684;2022-10-15T15:42:20;8.77;;;6.95;;
19339;SDS011;9804;52.350;6.684;2022-10-15T15:44:47;7.78;;;6.95;;
19339;SDS011;9804;52.350;6.684;2022-10-15T15:47:12;7.97;;;6.82;;
19339;SDS011;9804;52.350;6.684;2022-10-15T15:49:38;7.40;;;6.70;;
19339;SDS011;9804;52.350;6.684;2022-10-15T15:52:05;9.40;;;7.40;;
19339;SDS011;9804;52.350;6.684;2022-10-15T15:54:33;9.35;;;7.80;;
19339;SDS011;9804;52.350;6.684;2022-10-15T15:56:58;9.55;;;7.78;;
19339;SDS011;9804;52.350;6.684;2022-10-15T15:59:24;8.52;;;7.65;;
19339;SDS011;9804;52.350;6.684;2022-10-15T16:01:49;11.73;;;8.15;;
19339;SDS011;9804;52.350;6.684;2022-10-15T16:04:14;9.63;;;8.55;;
19339;SDS011;9804;52.350;6.684;2022-10-15T16:06:41;11.23;;;8.68;;
19339;SDS011;9804;52.350;6.684;2022-10-15T16:09:06;9.18;;;8.27;;
19339;SDS011;9804;52.350;6.684;2022-10-15T16:11:32;11.07;;;8.73;;
19339;SDS011;9804;52.350;6.684;2022-10-15T16:13:58;11.52;;;9.48;;
19339;SDS011;9804;52.350;6.684;2022-10-15T16:16:24;12.25;;;9.90;;
19339;SDS011;9804;52.350;6.684;2022-10-15T16:18:50;13.25;;;9.52;;
19339;SDS011;9804;52.350;6.684;2022-10-15T16:21:22;12.82;;;9.70;;